sensor_id;sensor_type;location;lat;lon;timestamp;pressure;altitude;pressure_sealevel;temperature;humidity
39435;BME280;66825;51.880;-0.518;2023-07-20T00:00:27;100746.69;;;22.35;44.84
39435;BME280;66825;51.880;-0.518;2023-07-20T00:02:52;100749.44;;;22.35;44.98
39435;BME280;66825;51.880;-0.518;2023-07-20T00:05:18;100754.13;;;22.35;45.01
39435;BME280;66825;51.880;-0.518;2023-07-20T00:07:46;100712.50;;;22.15;45.02
39435;BME280;66825;51.880;-0.518;2023-07-20T00:10:11;100748.94;;;22.33;44.88
39435;BME280;66825;51.880;-0.518;2023-07-20T00:12:37;100748.16;;;22.33;44.98
39435;BME280;66825;51.880;-0.518;2023-07-20T00:15:03;100748.16;;;22.33;44.93
39435;BME280;66825;51.880;-0.518;2023-07-20T00:17:28;100739.91;;;22.33;45.06
39435;BME280;66825;51.880;-0.518;2023-07-20T00:19:53;100741.03;;;22.32;44.87
39435;BME280;66825;51.880;-0.518;2023-07-20T00:22:19;100744.13;;;22.30;44.93
39435;BME280;66825;51.880;-0.518;2023-07-20T00:24:44;100742.19;;;22.31;44.99
39435;BME280;66825;51.880;-0.518;2023-07-20T00:27:10;100751.53;;;22.30;44.99
39435;BME280;66825;51.880;-0.518;2023-07-20T00:29:35;100679.13;;;21.87;44.85
39435;BME280;66825;51.880;-0.518;2023-07-20T00:32:01;100748.00;;;22.29;44.82
39435;BME280;66825;51.880;-0.518;2023-07-20T00:34:26;100699.28;;;22.00;44.76
39435;BME280;66825;51.880;-0.518;2023-07-20T00:36:52;100689.16;;;21.92;44.88
39435;BME280;66825;51.880;-0.518;2023-07-20T00:39:17;100740.09;;;22.28;44.98
39435;BME280;66825;51.880;-0.518;2023-07-20T00:41:42;100740.09;;;22.28;44.84
39435;BME280;66825;51.880;-0.518;2023-07-20T00:44:08;100734.91;;;22.26;44.91
39435;BME280;66825;51.880;-0.518;2023-07-20T00:46:33;100739.59;;;22.26;44.74
39435;BME280;66825;51.880;-0.518;2023-07-20T00:48:59;100733.28;;;22.25;44.65
39435;BME280;66825;51.880;-0.518;2023-07-20T00:51:25;100730.56;;;22.25;44.78
39435;BME280;66825;51.880;-0.518;2023-07-20T00:53:51;100736.03;;;22.25;44.94
39435;BME280;66825;51.880;-0.518;2023-07-20T00:56:17;100730.56;;;22.25;44.68
39435;BME280;66825;51.880;-0.518;2023-07-20T00:58:43;100728.13;;;22.24;44.85
39435;BME280;66825;51.880;-0.518;2023-07-20T01:01:09;100725.41;;;22.24;44.74
39435;BME280;66825;51.880;-0.518;2023-07-20T01:03:35;100724.59;;;22.23;44.63
39435;BME280;66825;51.880;-0.518;2023-07-20T01:06:30;100727.34;;;22.23;44.57
39435;BME280;66825;51.880;-0.518;2023-07-20T01:09:14;100726.53;;;22.23;44.57
39435;BME280;66825;51.880;-0.518;2023-07-20T01:14:11;100739.44;;;22.22;44.69
39435;BME280;66825;51.880;-0.518;2023-07-20T01:16:37;100694.28;;;21.93;44.72
39435;BME280;66825;51.880;-0.518;2023-07-20T01:19:03;100733.47;;;22.20;44.86
39435;BME280;66825;51.880;-0.518;2023-07-20T01:21:36;100730.91;;;22.15;44.77
39435;BME280;66825;51.880;-0.518;2023-07-20T01:31:55;100734.59;;;22.19;44.53
39435;BME280;66825;51.880;-0.518;2023-07-20T01:34:23;100728.66;;;22.17;44.59
39435;BME280;66825;51.880;-0.518;2023-07-20T01:36:52;100732.19;;;22.17;44.55
39435;BME280;66825;51.880;-0.518;2023-07-20T01:39:20;100726.69;;;22.17;44.62
39435;BME280;66825;51.880;-0.518;2023-07-20T01:41:46;100726.53;;;22.14;44.51
39435;BME280;66825;51.880;-0.518;2023-07-20T01:44:12;100728.00;;;22.11;44.52
39435;BME280;66825;51.880;-0.518;2023-07-20T01:46:38;100739.94;;;22.15;44.58
39435;BME280;66825;51.880;-0.518;2023-07-20T01:49:03;100738.81;;;22.16;44.63
39435;BME280;66825;51.880;-0.518;2023-07-20T01:51:29;100743.81;;;22.14;44.60
39435;BME280;66825;51.880;-0.518;2023-07-20T01:53:54;100738.00;;;22.16;44.54
39435;BME280;66825;51.880;-0.518;2023-07-20T01:56:20;100730.09;;;22.14;44.76
39435;BME280;66825;51.880;-0.518;2023-07-20T01:58:46;100725.75;;;22.13;44.53
39435;BME280;66825;51.880;-0.518;2023-07-20T02:01:11;100723.00;;;22.13;44.59
39435;BME280;66825;51.880;-0.518;2023-07-20T02:03:37;100651.22;;;21.67;44.48
39435;BME280;66825;51.880;-0.518;2023-07-20T02:06:03;100715.06;;;22.12;44.41
39435;BME280;66825;51.880;-0.518;2023-07-20T02:08:28;100723.00;;;22.13;44.56
39435;BME280;66825;51.880;-0.518;2023-07-20T02:10:53;100698.00;;;21.97;44.46
39435;BME280;66825;51.880;-0.518;2023-07-20T02:13:19;100718.94;;;22.11;44.44
39435;BME280;66825;51.880;-0.518;2023-07-20T02:15:44;100673.63;;;21.78;44.33
39435;BME280;66825;51.880;-0.518;2023-07-20T02:18:12;100701.06;;;21.96;44.31
39435;BME280;66825;51.880;-0.518;2023-07-20T02:20:37;100722.84;;;22.10;44.52
39435;BME280;66825;51.880;-0.518;2023-07-20T02:23:03;100722.03;;;22.09;44.35
39435;BME280;66825;51.880;-0.518;2023-07-20T02:25:28;100716.53;;;22.09;44.46
39435;BME280;66825;51.880;-0.518;2023-07-20T02:27:56;100722.69;;;22.06;44.54
39435;BME280;66825;51.880;-0.518;2023-07-20T02:30:21;100721.22;;;22.09;44.50
39435;BME280;66825;51.880;-0.518;2023-07-20T02:32:47;100714.47;;;22.06;44.59
39435;BME280;66825;51.880;-0.518;2023-07-20T02:35:14;100718.78;;;22.07;44.52
39435;BME280;66825;51.880;-0.518;2023-07-20T02:37:40;100712.19;;;22.08;44.40
39435;BME280;66825;51.880;-0.518;2023-07-20T02:40:06;100709.44;;;22.08;44.42
39435;BME280;66825;51.880;-0.518;2023-07-20T02:42:32;100717.22;;;22.06;44.56
39435;BME280;66825;51.880;-0.518;2023-07-20T02:44:58;100709.78;;;22.07;44.46
39435;BME280;66825;51.880;-0.518;2023-07-20T02:47:23;100708.16;;;22.05;44.60
39435;BME280;66825;51.880;-0.518;2023-07-20T02:49:49;100708.16;;;22.05;44.41
39435;BME280;66825;51.880;-0.518;2023-07-20T02:52:14;100707.19;;;22.01;44.41
39435;BME280;66825;51.880;-0.518;2023-07-20T02:54:40;100703.00;;;21.95;44.40
39435;BME280;66825;51.880;-0.518;2023-07-20T02:57:05;100708.50;;;22.04;44.52
39435;BME280;66825;51.880;-0.518;2023-07-20T02:59:31;100709.59;;;22.03;44.41
39435;BME280;66825;51.880;-0.518;2023-07-20T03:01:56;100715.88;;;22.03;44.33
39435;BME280;66825;51.880;-0.518;2023-07-20T03:04:23;100708.66;;;21.99;44.37
39435;BME280;66825;51.880;-0.518;2023-07-20T03:06:50;100712.69;;;22.01;44.31
39435;BME280;66825;51.880;-0.518;2023-07-20T03:09:16;100713.47;;;22.02;44.54
39435;BME280;66825;51.880;-0.518;2023-07-20T03:11:41;100717.84;;;22.03;44.21
39435;BME280;66825;51.880;-0.518;2023-07-20T03:14:07;100720.91;;;22.01;44.24
39435;BME280;66825;51.880;-0.518;2023-07-20T03:16:33;100714.59;;;22.01;44.46
39435;BME280;66825;51.880;-0.518;2023-07-20T03:18:59;100712.69;;;22.01;44.46
39435;BME280;66825;51.880;-0.518;2023-07-20T03:21:25;100719.31;;;22.00;44.44
39435;BME280;66825;51.880;-0.518;2023-07-20T03:23:51;100716.25;;;21.93;44.40
39435;BME280;66825;51.880;-0.518;2023-07-20T03:26:16;100722.38;;;21.99;44.36
39435;BME280;66825;51.880;-0.518;2023-07-20T03:28:42;100723.16;;;21.99;44.44
39435;BME280;66825;51.880;-0.518;2023-07-20T03:31:07;100725.91;;;21.99;44.50
39435;BME280;66825;51.880;-0.518;2023-07-20T03:33:33;100723.16;;;21.99;44.33
39435;BME280;66825;51.880;-0.518;2023-07-20T03:35:59;100718.81;;;21.98;44.50
39435;BME280;66825;51.880;-0.518;2023-07-20T03:38:26;100726.25;;;21.98;44.47
39435;BME280;66825;51.880;-0.518;2023-07-20T03:40:53;100727.03;;;21.98;44.31
39435;BME280;66825;51.880;-0.518;2023-07-20T03:43:20;100728.16;;;21.97;44.22
39435;BME280;66825;51.880;-0.518;2023-07-20T03:45:46;100703.34;;;21.85;44.43
39435;BME280;66825;51.880;-0.518;2023-07-20T03:48:16;100705.44;;;21.88;44.52
39435;BME280;66825;51.880;-0.518;2023-07-20T03:50:43;100717.53;;;21.96;44.60
39435;BME280;66825;51.880;-0.518;2023-07-20T03:53:09;100712.03;;;21.96;44.37
39435;BME280;66825;51.880;-0.518;2023-07-20T03:55:34;100718.66;;;21.95;44.20
39435;BME280;66825;51.880;-0.518;2023-07-20T04:00:25;100713.16;;;21.95;44.35
39435;BME280;66825;51.880;-0.518;2023-07-20T04:02:50;100708.81;;;21.94;44.35
39435;BME280;66825;51.880;-0.518;2023-07-20T04:05:16;100714.28;;;21.94;44.41
39435;BME280;66825;51.880;-0.518;2023-07-20T04:07:42;100709.94;;;21.93;44.33
39435;BME280;66825;51.880;-0.518;2023-07-20T04:10:07;100714.63;;;21.92;44.36
39435;BME280;66825;51.880;-0.518;2023-07-20T04:12:33;100717.38;;;21.92;44.20
39435;BME280;66825;51.880;-0.518;2023-07-20T04:14:58;100717.69;;;21.91;44.39
39435;BME280;66825;51.880;-0.518;2023-07-20T04:17:24;100706.88;;;21.85;44.25
39435;BME280;66825;51.880;-0.518;2023-07-20T04:19:49;100717.69;;;21.91;44.30
39435;BME280;66825;51.880;-0.518;2023-07-20T04:22:15;100718.81;;;21.89;44.29
39435;BME280;66825;51.880;-0.518;2023-07-20T04:24:42;100710.44;;;21.86;44.24
39435;BME280;66825;51.880;-0.518;2023-07-20T04:27:08;100716.06;;;21.89;44.22
39435;BME280;66825;51.880;-0.518;2023-07-20T04:29:33;100718.00;;;21.89;44.33
39435;BME280;66825;51.880;-0.518;2023-07-20T04:32:00;100708.97;;;21.88;44.31
39435;BME280;66825;51.880;-0.518;2023-07-20T04:34:25;100699.97;;;21.88;44.43
39435;BME280;66825;51.880;-0.518;2023-07-20T04:36:51;100704.13;;;21.85;44.42
39435;BME280;66825;51.880;-0.518;2023-07-20T04:39:16;100710.09;;;21.87;44.35
39435;BME280;66825;51.880;-0.518;2023-07-20T04:41:42;100710.09;;;21.87;44.22
39435;BME280;66825;51.880;-0.518;2023-07-20T04:44:07;100652.66;;;21.47;44.34
39435;BME280;66825;51.880;-0.518;2023-07-20T04:46:33;100710.44;;;21.86;44.21
39435;BME280;66825;51.880;-0.518;2023-07-20T04:48:58;100710.75;;;21.84;44.28
39435;BME280;66825;51.880;-0.518;2023-07-20T04:51:24;100716.72;;;21.86;44.33
39435;BME280;66825;51.880;-0.518;2023-07-20T04:53:49;100712.34;;;21.85;44.33
39435;BME280;66825;51.880;-0.518;2023-07-20T04:56:15;100697.69;;;21.72;44.10
39435;BME280;66825;51.880;-0.518;2023-07-20T04:58:40;100715.09;;;21.85;44.33
39435;BME280;66825;51.880;-0.518;2023-07-20T05:01:06;100698.16;;;21.74;44.33
39435;BME280;66825;51.880;-0.518;2023-07-20T05:03:31;100717.84;;;21.85;44.40
39435;BME280;66825;51.880;-0.518;2023-07-20T05:05:57;100716.25;;;21.84;44.32
39435;BME280;66825;51.880;-0.518;2023-07-20T05:08:22;100725.59;;;21.83;44.31
39435;BME280;66825;51.880;-0.518;2023-07-20T05:10:48;100719.63;;;21.81;44.41
39435;BME280;66825;51.880;-0.518;2023-07-20T05:13:14;100718.50;;;21.82;44.15
39435;BME280;66825;51.880;-0.518;2023-07-20T05:15:40;100717.06;;;21.76;44.31
39435;BME280;66825;51.880;-0.518;2023-07-20T05:18:05;100716.56;;;21.83;44.26
39435;BME280;66825;51.880;-0.518;2023-07-20T05:20:31;100731.38;;;21.82;44.24
39435;BME280;66825;51.880;-0.518;2023-07-20T05:22:58;100718.50;;;21.82;44.25
39435;BME280;66825;51.880;-0.518;2023-07-20T05:25:24;100720.41;;;21.82;44.41
39435;BME280;66825;51.880;-0.518;2023-07-20T05:27:49;100715.91;;;21.77;44.25
39435;BME280;66825;51.880;-0.518;2023-07-20T05:30:15;100730.59;;;21.81;44.15
39435;BME280;66825;51.880;-0.518;2023-07-20T05:32:41;100706.88;;;21.77;44.28
39435;BME280;66825;51.880;-0.518;2023-07-20T05:35:07;100724.31;;;21.81;44.32
39435;BME280;66825;51.880;-0.518;2023-07-20T05:37:33;100726.22;;;21.80;44.15
39435;BME280;66825;51.880;-0.518;2023-07-20T05:39:59;100717.50;;;21.78;44.39
39435;BME280;66825;51.880;-0.518;2023-07-20T05:42:24;100674.59;;;21.47;44.45
39435;BME280;66825;51.880;-0.518;2023-07-20T05:44:50;100668.28;;;21.47;44.28
39435;BME280;66825;51.880;-0.518;2023-07-20T05:47:18;100724.94;;;21.78;44.41
39435;BME280;66825;51.880;-0.518;2023-07-20T05:49:43;100723.81;;;21.79;44.18
39435;BME280;66825;51.880;-0.518;2023-07-20T05:52:09;100714.31;;;21.76;44.28
39435;BME280;66825;51.880;-0.518;2023-07-20T05:54:34;100658.94;;;21.39;44.49
39435;BME280;66825;51.880;-0.518;2023-07-20T05:56:59;100726.88;;;21.77;44.13
39435;BME280;66825;51.880;-0.518;2023-07-20T05:59:27;100718.81;;;21.72;44.35
39435;BME280;66825;51.880;-0.518;2023-07-20T06:01:54;100691.84;;;21.56;44.14
39435;BME280;66825;51.880;-0.518;2023-07-20T06:04:20;100711.53;;;21.67;44.32
39435;BME280;66825;51.880;-0.518;2023-07-20T06:06:45;100728.03;;;21.76;44.35
39435;BME280;66825;51.880;-0.518;2023-07-20T06:09:11;100729.94;;;21.76;44.39
39435;BME280;66825;51.880;-0.518;2023-07-20T06:11:40;100723.66;;;21.75;44.32
39435;BME280;66825;51.880;-0.518;2023-07-20T06:14:05;100713.50;;;21.67;44.25
39435;BME280;66825;51.880;-0.518;2023-07-20T06:16:31;100723.97;;;21.73;44.17
39435;BME280;66825;51.880;-0.518;2023-07-20T06:18:56;100700.91;;;21.57;44.33
39435;BME280;66825;51.880;-0.518;2023-07-20T06:21:22;100726.69;;;21.73;44.26
39435;BME280;66825;51.880;-0.518;2023-07-20T06:23:48;100718.66;;;21.68;44.29
39435;BME280;66825;51.880;-0.518;2023-07-20T06:26:13;100733.00;;;21.74;44.19
39435;BME280;66825;51.880;-0.518;2023-07-20T06:28:39;100726.88;;;21.68;44.46
39435;BME280;66825;51.880;-0.518;2023-07-20T06:31:04;100736.09;;;21.72;44.26
39435;BME280;66825;51.880;-0.518;2023-07-20T06:33:30;100732.03;;;21.70;44.36
39435;BME280;66825;51.880;-0.518;2023-07-20T06:35:55;100717.97;;;21.63;44.33
39435;BME280;66825;51.880;-0.518;2023-07-20T06:38:22;100730.09;;;21.70;44.27
39435;BME280;66825;51.880;-0.518;2023-07-20T06:40:51;100730.91;;;21.71;44.39
39435;BME280;66825;51.880;-0.518;2023-07-20T06:43:17;100733.63;;;21.71;44.46
39435;BME280;66825;51.880;-0.518;2023-07-20T06:45:42;100732.03;;;21.70;44.38
39435;BME280;66825;51.880;-0.518;2023-07-20T06:48:08;100724.94;;;21.69;44.38
39435;BME280;66825;51.880;-0.518;2023-07-20T06:50:34;100713.31;;;21.63;44.10
39435;BME280;66825;51.880;-0.518;2023-07-20T06:53:00;100727.69;;;21.69;44.16
39435;BME280;66825;51.880;-0.518;2023-07-20T06:55:28;100724.94;;;21.69;44.39
39435;BME280;66825;51.880;-0.518;2023-07-20T06:57:53;100726.38;;;21.66;44.30
39435;BME280;66825;51.880;-0.518;2023-07-20T07:00:19;100724.13;;;21.68;44.26
39435;BME280;66825;51.880;-0.518;2023-07-20T07:02:45;100721.72;;;21.67;44.18
39435;BME280;66825;51.880;-0.518;2023-07-20T07:05:10;100728.00;;;21.67;44.38
39435;BME280;66825;51.880;-0.518;2023-07-20T07:07:36;100655.38;;;21.21;44.19
39435;BME280;66825;51.880;-0.518;2023-07-20T07:10:02;100726.06;;;21.68;44.33
39435;BME280;66825;51.880;-0.518;2023-07-20T07:12:30;100721.72;;;21.67;44.26
39435;BME280;66825;51.880;-0.518;2023-07-20T07:14:55;100709.28;;;21.61;44.23
39435;BME280;66825;51.880;-0.518;2023-07-20T07:17:20;100714.44;;;21.62;44.42
39435;BME280;66825;51.880;-0.518;2023-07-20T07:19:46;100720.72;;;21.63;44.19
39435;BME280;66825;51.880;-0.518;2023-07-20T07:22:11;100726.69;;;21.65;44.35
39435;BME280;66825;51.880;-0.518;2023-07-20T07:24:37;100728.31;;;21.66;44.27
39435;BME280;66825;51.880;-0.518;2023-07-20T07:27:03;100727.19;;;21.67;44.06
39435;BME280;66825;51.880;-0.518;2023-07-20T07:29:29;100704.13;;;21.59;44.34
39435;BME280;66825;51.880;-0.518;2023-07-20T07:31:55;100721.06;;;21.70;45.01
39435;BME280;66825;51.880;-0.518;2023-07-20T07:34:21;100730.91;;;21.71;44.49
39435;BME280;66825;51.880;-0.518;2023-07-20T07:36:46;100720.59;;;21.68;44.26
39435;BME280;66825;51.880;-0.518;2023-07-20T07:39:12;100661.34;;;21.32;44.17
39435;BME280;66825;51.880;-0.518;2023-07-20T07:41:37;100722.84;;;21.74;44.33
39435;BME280;66825;51.880;-0.518;2023-07-20T07:44:03;100725.28;;;21.76;44.14
39435;BME280;66825;51.880;-0.518;2023-07-20T07:46:28;100716.72;;;21.78;44.19
39435;BME280;66825;51.880;-0.518;2023-07-20T07:48:54;100721.09;;;21.79;44.15
39435;BME280;66825;51.880;-0.518;2023-07-20T07:51:19;100718.00;;;21.80;44.05
39435;BME280;66825;51.880;-0.518;2023-07-20T07:53:46;100713.66;;;21.79;44.26
39435;BME280;66825;51.880;-0.518;2023-07-20T07:56:11;100688.81;;;21.67;44.02
39435;BME280;66825;51.880;-0.518;2023-07-20T07:58:37;100714.63;;;21.83;43.95
39435;BME280;66825;51.880;-0.518;2023-07-20T08:01:03;100697.69;;;21.72;44.08
39435;BME280;66825;51.880;-0.518;2023-07-20T08:03:30;100709.94;;;21.84;44.01
39435;BME280;66825;51.880;-0.518;2023-07-20T08:05:55;100720.75;;;21.89;43.91
39435;BME280;66825;51.880;-0.518;2023-07-20T08:08:22;100722.34;;;21.90;43.87
39435;BME280;66825;51.880;-0.518;2023-07-20T08:10:48;100705.56;;;21.83;43.76
39435;BME280;66825;51.880;-0.518;2023-07-20T08:13:14;100696.06;;;21.80;43.76
39435;BME280;66825;51.880;-0.518;2023-07-20T08:15:39;100719.47;;;21.95;43.64
39435;BME280;66825;51.880;-0.518;2023-07-20T08:18:05;100706.22;;;21.88;43.72
39435;BME280;66825;51.880;-0.518;2023-07-20T08:20:31;100715.28;;;21.98;43.76
39435;BME280;66825;51.880;-0.518;2023-07-20T08:22:57;100699.13;;;21.87;43.86
39435;BME280;66825;51.880;-0.518;2023-07-20T08:25:29;100717.34;;;22.01;43.59
39435;BME280;66825;51.880;-0.518;2023-07-20T08:27:55;100713.47;;;22.02;43.60
39435;BME280;66825;51.880;-0.518;2023-07-20T08:30:21;100712.34;;;22.03;43.60
39435;BME280;66825;51.880;-0.518;2023-07-20T08:32:48;100703.00;;;22.04;43.58
39435;BME280;66825;51.880;-0.518;2023-07-20T08:35:14;100703.78;;;22.04;43.70
39435;BME280;66825;51.880;-0.518;2023-07-20T08:37:41;100708.50;;;22.04;43.59
39435;BME280;66825;51.880;-0.518;2023-07-20T08:40:06;100707.03;;;22.07;43.41
39435;BME280;66825;51.880;-0.518;2023-07-20T08:42:34;100707.03;;;22.07;43.29
39435;BME280;66825;51.880;-0.518;2023-07-20T08:45:00;100694.44;;;22.05;43.46
39435;BME280;66825;51.880;-0.518;2023-07-20T08:47:26;100707.19;;;22.10;43.35
39435;BME280;66825;51.880;-0.518;2023-07-20T08:49:51;100708.13;;;22.14;43.03
39435;BME280;66825;51.880;-0.518;2023-07-20T08:52:19;100708.63;;;22.16;42.68
39435;BME280;66825;51.880;-0.518;2023-07-20T08:54:45;100707.97;;;22.19;42.26
39435;BME280;66825;51.880;-0.518;2023-07-20T08:57:13;100706.03;;;22.20;42.06
39435;BME280;66825;51.880;-0.518;2023-07-20T08:59:39;100699.91;;;22.23;41.66
39435;BME280;66825;51.880;-0.518;2023-07-20T09:02:07;100699.09;;;22.23;41.62
39435;BME280;66825;51.880;-0.518;2023-07-20T09:04:33;100660.56;;;21.93;41.39
39435;BME280;66825;51.880;-0.518;2023-07-20T09:06:59;100707.16;;;22.28;41.42
39435;BME280;66825;51.880;-0.518;2023-07-20T09:09:24;100712.31;;;22.29;41.27
39435;BME280;66825;51.880;-0.518;2023-07-20T09:11:50;100710.69;;;22.28;40.73
39435;BME280;66825;51.880;-0.518;2023-07-20T09:14:15;100702.13;;;22.30;40.97
39435;BME280;66825;51.880;-0.518;2023-07-20T09:16:52;100684.91;;;22.20;40.44
39435;BME280;66825;51.880;-0.518;2023-07-20T09:19:18;100698.75;;;22.33;40.80
39435;BME280;66825;51.880;-0.518;2023-07-20T09:21:49;100692.78;;;22.31;40.23
39435;BME280;66825;51.880;-0.518;2023-07-20T09:24:19;100702.28;;;22.33;39.96
39435;BME280;66825;51.880;-0.518;2023-07-20T09:26:46;100709.41;;;22.34;40.13
39435;BME280;66825;51.880;-0.518;2023-07-20T09:29:19;100703.56;;;22.36;40.15
39435;BME280;66825;51.880;-0.518;2023-07-20T09:32:04;100697.78;;;22.37;40.07
39435;BME280;66825;51.880;-0.518;2023-07-20T09:34:30;100690.34;;;22.38;40.26
39435;BME280;66825;51.880;-0.518;2023-07-20T09:36:59;100691.19;;;22.39;40.36
39435;BME280;66825;51.880;-0.518;2023-07-20T09:39:28;100679.88;;;22.40;40.41
39435;BME280;66825;51.880;-0.518;2023-07-20T09:41:54;100683.22;;;22.37;40.52
39435;BME280;66825;51.880;-0.518;2023-07-20T09:44:27;100683.56;;;22.44;39.88
39435;BME280;66825;51.880;-0.518;2023-07-20T09:46:53;100685.19;;;22.45;40.38
39435;BME280;66825;51.880;-0.518;2023-07-20T09:49:18;100666.94;;;22.41;40.26
39435;BME280;66825;51.880;-0.518;2023-07-20T09:51:45;100677.91;;;22.49;40.26
39435;BME280;66825;51.880;-0.518;2023-07-20T09:54:11;100662.09;;;22.37;40.11
39435;BME280;66825;51.880;-0.518;2023-07-20T09:56:39;100671.75;;;22.52;40.14
39435;BME280;66825;51.880;-0.518;2023-07-20T09:59:05;100673.84;;;22.56;40.02
39435;BME280;66825;51.880;-0.518;2023-07-20T10:01:32;100663.34;;;22.58;39.68
39435;BME280;66825;51.880;-0.518;2023-07-20T10:03:58;100658.31;;;22.60;39.88
39435;BME280;66825;51.880;-0.518;2023-07-20T10:06:28;100643.84;;;22.50;39.84
39435;BME280;66825;51.880;-0.518;2023-07-20T10:08:57;100659.75;;;22.66;39.88
39435;BME280;66825;51.880;-0.518;2023-07-20T10:11:30;100661.34;;;22.67;39.95
39435;BME280;66825;51.880;-0.518;2023-07-20T10:13:58;100663.44;;;22.70;39.92
39435;BME280;66825;51.880;-0.518;2023-07-20T10:16:38;100661.19;;;22.72;39.65
39435;BME280;66825;51.880;-0.518;2023-07-20T10:19:07;100659.72;;;22.75;39.74
39435;BME280;66825;51.880;-0.518;2023-07-20T10:21:40;100655.34;;;22.74;39.66
39435;BME280;66825;51.880;-0.518;2023-07-20T10:24:07;100661.47;;;22.79;39.94
39435;BME280;66825;51.880;-0.518;2023-07-20T10:26:36;100664.69;;;22.81;39.71
39435;BME280;66825;51.880;-0.518;2023-07-20T10:29:01;100644.38;;;22.74;39.67
39435;BME280;66825;51.880;-0.518;2023-07-20T10:31:28;100662.41;;;22.83;39.54
39435;BME280;66825;51.880;-0.518;2023-07-20T10:33:56;100653.69;;;22.81;39.34
39435;BME280;66825;51.880;-0.518;2023-07-20T10:36:26;100661.75;;;22.87;39.39
39435;BME280;66825;51.880;-0.518;2023-07-20T10:38:56;100646.91;;;22.79;39.73
39435;BME280;66825;51.880;-0.518;2023-07-20T10:41:35;100659.03;;;22.87;39.20
39435;BME280;66825;51.880;-0.518;2023-07-20T10:44:06;100655.31;;;22.82;39.06
39435;BME280;66825;51.880;-0.518;2023-07-20T10:46:42;100598.44;;;22.53;38.85
39435;BME280;66825;51.880;-0.518;2023-07-20T10:49:10;100659.47;;;22.89;39.19
39435;BME280;66825;51.880;-0.518;2023-07-20T10:51:39;100663.84;;;22.90;38.78
39435;BME280;66825;51.880;-0.518;2023-07-20T10:54:08;100657.22;;;22.91;38.94
39435;BME280;66825;51.880;-0.518;2023-07-20T10:56:33;100637.50;;;22.89;38.63
39435;BME280;66825;51.880;-0.518;2023-07-20T10:59:00;100651.38;;;22.92;38.64
39435;BME280;66825;51.880;-0.518;2023-07-20T11:01:30;100653.81;;;22.94;38.58
39435;BME280;66825;51.880;-0.518;2023-07-20T11:03:59;100646.34;;;22.94;38.45
39435;BME280;66825;51.880;-0.518;2023-07-20T11:09:33;100632.75;;;22.98;38.74
39435;BME280;66825;51.880;-0.518;2023-07-20T11:12:09;100633.25;;;23.00;38.62
39435;BME280;66825;51.880;-0.518;2023-07-20T11:14:40;100632.09;;;23.01;38.61
39435;BME280;66825;51.880;-0.518;2023-07-20T11:17:15;100622.13;;;22.96;38.55
39435;BME280;66825;51.880;-0.518;2023-07-20T11:19:48;100630.28;;;23.05;38.61
39435;BME280;66825;51.880;-0.518;2023-07-20T11:22:16;100622.25;;;23.00;38.83
39435;BME280;66825;51.880;-0.518;2023-07-20T11:24:42;100617.22;;;23.02;38.93
39435;BME280;66825;51.880;-0.518;2023-07-20T11:27:08;100621.53;;;23.12;39.12
39435;BME280;66825;51.880;-0.518;2023-07-20T11:29:35;100625.88;;;23.13;38.97
39435;BME280;66825;51.880;-0.518;2023-07-20T11:32:02;100621.66;;;23.15;38.92
39435;BME280;66825;51.880;-0.518;2023-07-20T11:34:31;100628.47;;;23.18;39.02
39435;BME280;66825;51.880;-0.518;2023-07-20T11:36:58;100612.59;;;23.15;38.95
39435;BME280;66825;51.880;-0.518;2023-07-20T11:39:24;100628.94;;;23.20;38.94
39435;BME280;66825;51.880;-0.518;2023-07-20T11:41:57;100611.47;;;23.16;38.78
39435;BME280;66825;51.880;-0.518;2023-07-20T11:44:24;100625.50;;;23.23;39.15
39435;BME280;66825;51.880;-0.518;2023-07-20T11:47:10;100608.69;;;23.25;38.99
39435;BME280;66825;51.880;-0.518;2023-07-20T11:52:07;100611.38;;;23.34;39.12
39435;BME280;66825;51.880;-0.518;2023-07-20T11:54:34;100614.56;;;23.36;39.10
39435;BME280;66825;51.880;-0.518;2023-07-20T11:57:04;100604.41;;;23.36;38.96
39435;BME280;66825;51.880;-0.518;2023-07-20T11:59:31;100606.00;;;23.37;38.74
39435;BME280;66825;51.880;-0.518;2023-07-20T12:01:57;100606.81;;;23.38;38.67
39435;BME280;66825;51.880;-0.518;2023-07-20T12:04:23;100613.44;;;23.37;38.32
39435;BME280;66825;51.880;-0.518;2023-07-20T12:06:48;100606.00;;;23.37;38.54
39435;BME280;66825;51.880;-0.518;2023-07-20T12:09:16;100602.91;;;23.39;38.41
39435;BME280;66825;51.880;-0.518;2023-07-20T12:11:43;100604.88;;;23.38;37.65
39435;BME280;66825;51.880;-0.518;2023-07-20T12:14:10;100606.16;;;23.41;38.63
39435;BME280;66825;51.880;-0.518;2023-07-20T12:16:37;100611.44;;;23.46;38.72
39435;BME280;66825;51.880;-0.518;2023-07-20T12:19:06;100603.66;;;23.48;38.92
39435;BME280;66825;51.880;-0.518;2023-07-20T12:21:34;100597.47;;;23.51;38.71
39435;BME280;66825;51.880;-0.518;2023-07-20T12:23:59;100595.06;;;23.50;38.82
39435;BME280;66825;51.880;-0.518;2023-07-20T12:26:25;100602.44;;;23.58;38.51
39435;BME280;66825;51.880;-0.518;2023-07-20T12:28:52;100598.19;;;23.60;38.60
39435;BME280;66825;51.880;-0.518;2023-07-20T12:31:18;100597.06;;;23.61;38.39
39435;BME280;66825;51.880;-0.518;2023-07-20T12:33:43;100605.78;;;23.63;38.74
39435;BME280;66825;51.880;-0.518;2023-07-20T12:36:10;100585.06;;;23.66;38.68
39435;BME280;66825;51.880;-0.518;2023-07-20T12:38:35;100572.66;;;23.60;38.43
39435;BME280;66825;51.880;-0.518;2023-07-20T12:41:02;100589.97;;;23.73;38.51
39435;BME280;66825;51.880;-0.518;2023-07-20T12:43:28;100576.81;;;23.78;38.46
39435;BME280;66825;51.880;-0.518;2023-07-20T12:45:55;100576.34;;;23.76;38.45
39435;BME280;66825;51.880;-0.518;2023-07-20T12:48:20;100583.28;;;23.83;38.43
39435;BME280;66825;51.880;-0.518;2023-07-20T12:50:46;100582.94;;;23.84;38.38
39435;BME280;66825;51.880;-0.518;2023-07-20T12:53:11;100568.03;;;23.85;38.27
39435;BME280;66825;51.880;-0.518;2023-07-20T12:55:38;100570.78;;;23.85;38.23